<?xml version="1.0" encoding="UTF-8" standalone="no" ?>
<gpx xmlns="http://www.topografix.com/GPX/1/1" xmlns:xsi="http://www.w3.org/2001/XMLSchema-instance" xsi:schemaLocation="http://www.topografix.com/GPX/1/1 http://www.topografix.com/GPX/1/1/gpx.xsd" version="1.1" creator="VisuGPX - https://www.visugpx.com">
  <metadata>
    <name>Poutassaou reel HW 2017</name>
    <desc><![CDATA[Le Camping de la plage, Poutassaou]]></desc>
  </metadata>
  <trk>
    <name><![CDATA[ACTIVE LOG 01 Aout 2017LYONS SUANE VERNADES POUTAS...]]></name>
    <trkseg>
      <trkpt lat="43.28171" lon="6.58742">
        <ele>2</ele>
        <time>2017-08-01T06:23:31Z</time>
      </trkpt>
      <trkpt lat="43.28185" lon="6.58735">
        <ele>3</ele>
        <time>2017-08-01T06:29:05Z</time>
      </trkpt>
      <trkpt lat="43.28177" lon="6.58713">
        <ele>3</ele>
        <time>2017-08-01T06:36:13Z</time>
      </trkpt>
      <trkpt lat="43.28186" lon="6.58658">
        <ele>4</ele>
        <time>2017-08-01T06:36:29Z</time>
      </trkpt>
      <trkpt lat="43.28199" lon="6.58608">
        <ele>6</ele>
        <time>2017-08-01T06:36:45Z</time>
      </trkpt>
      <trkpt lat="43.28192" lon="6.58553">
        <ele>5</ele>
        <time>2017-08-01T06:37:00Z</time>
      </trkpt>
      <trkpt lat="43.28179" lon="6.58501">
        <ele>6</ele>
        <time>2017-08-01T06:37:11Z</time>
      </trkpt>
      <trkpt lat="43.28166" lon="6.58451">
        <ele>6</ele>
        <time>2017-08-01T06:37:23Z</time>
      </trkpt>
      <trkpt lat="43.28152" lon="6.58393">
        <ele>5</ele>
        <time>2017-08-01T06:37:34Z</time>
      </trkpt>
      <trkpt lat="43.28137" lon="6.58341">
        <ele>5</ele>
        <time>2017-08-01T06:37:44Z</time>
      </trkpt>
      <trkpt lat="43.28124" lon="6.58284">
        <ele>6</ele>
        <time>2017-08-01T06:37:56Z</time>
      </trkpt>
      <trkpt lat="43.28107" lon="6.58232">
        <ele>5</ele>
        <time>2017-08-01T06:38:13Z</time>
      </trkpt>
      <trkpt lat="43.28095" lon="6.58178">
        <ele>5</ele>
        <time>2017-08-01T06:38:26Z</time>
      </trkpt>
      <trkpt lat="43.28082" lon="6.58124">
        <ele>5</ele>
        <time>2017-08-01T06:38:37Z</time>
      </trkpt>
      <trkpt lat="43.28066" lon="6.58068">
        <ele>6</ele>
        <time>2017-08-01T06:38:47Z</time>
      </trkpt>
      <trkpt lat="43.28049" lon="6.5801">
        <ele>7</ele>
        <time>2017-08-01T06:38:56Z</time>
      </trkpt>
      <trkpt lat="43.28029" lon="6.57957">
        <ele>7</ele>
        <time>2017-08-01T06:39:03Z</time>
      </trkpt>
      <trkpt lat="43.28009" lon="6.57909">
        <ele>7</ele>
        <time>2017-08-01T06:39:13Z</time>
      </trkpt>
      <trkpt lat="43.27986" lon="6.57862">
        <ele>8</ele>
        <time>2017-08-01T06:39:24Z</time>
      </trkpt>
      <trkpt lat="43.27994" lon="6.57868">
        <ele>8</ele>
        <time>2017-08-01T06:39:41Z</time>
      </trkpt>
      <trkpt lat="43.28016" lon="6.57914">
        <ele>7</ele>
        <time>2017-08-01T06:39:51Z</time>
      </trkpt>
      <trkpt lat="43.28043" lon="6.57956">
        <ele>7</ele>
        <time>2017-08-01T06:40:02Z</time>
      </trkpt>
      <trkpt lat="43.2804" lon="6.57898">
        <ele>7</ele>
        <time>2017-08-01T06:40:33Z</time>
      </trkpt>
      <trkpt lat="43.2807" lon="6.57859">
        <ele>7</ele>
        <time>2017-08-01T06:40:50Z</time>
      </trkpt>
      <trkpt lat="43.28102" lon="6.57824">
        <ele>8</ele>
        <time>2017-08-01T06:41:06Z</time>
      </trkpt>
      <trkpt lat="43.28133" lon="6.57786">
        <ele>9</ele>
        <time>2017-08-01T06:41:21Z</time>
      </trkpt>
      <trkpt lat="43.2816" lon="6.5775">
        <ele>11</ele>
        <time>2017-08-01T06:41:35Z</time>
      </trkpt>
      <trkpt lat="43.28202" lon="6.57742">
        <ele>11</ele>
        <time>2017-08-01T06:41:47Z</time>
      </trkpt>
      <trkpt lat="43.2824" lon="6.57728">
        <ele>11</ele>
        <time>2017-08-01T06:41:58Z</time>
      </trkpt>
      <trkpt lat="43.28267" lon="6.57683">
        <ele>11</ele>
        <time>2017-08-01T06:42:08Z</time>
      </trkpt>
      <trkpt lat="43.28297" lon="6.57647">
        <ele>12</ele>
        <time>2017-08-01T06:42:17Z</time>
      </trkpt>
      <trkpt lat="43.28335" lon="6.57628">
        <ele>12</ele>
        <time>2017-08-01T06:42:26Z</time>
      </trkpt>
      <trkpt lat="43.28378" lon="6.5762">
        <ele>12</ele>
        <time>2017-08-01T06:42:34Z</time>
      </trkpt>
      <trkpt lat="43.28423" lon="6.57623">
        <ele>12</ele>
        <time>2017-08-01T06:42:42Z</time>
      </trkpt>
      <trkpt lat="43.28463" lon="6.57626">
        <ele>11</ele>
        <time>2017-08-01T06:42:50Z</time>
      </trkpt>
      <trkpt lat="43.28504" lon="6.57626">
        <ele>11</ele>
        <time>2017-08-01T06:43:00Z</time>
      </trkpt>
      <trkpt lat="43.28543" lon="6.57615">
        <ele>12</ele>
        <time>2017-08-01T06:43:11Z</time>
      </trkpt>
      <trkpt lat="43.28581" lon="6.57596">
        <ele>12</ele>
        <time>2017-08-01T06:43:22Z</time>
      </trkpt>
      <trkpt lat="43.28617" lon="6.57564">
        <ele>14</ele>
        <time>2017-08-01T06:43:33Z</time>
      </trkpt>
      <trkpt lat="43.2865" lon="6.57532">
        <ele>15</ele>
        <time>2017-08-01T06:43:45Z</time>
      </trkpt>
      <trkpt lat="43.28682" lon="6.57497">
        <ele>16</ele>
        <time>2017-08-01T06:43:57Z</time>
      </trkpt>
      <trkpt lat="43.28714" lon="6.57463">
        <ele>16</ele>
        <time>2017-08-01T06:44:09Z</time>
      </trkpt>
      <trkpt lat="43.2875" lon="6.57478">
        <ele>20</ele>
        <time>2017-08-01T06:44:25Z</time>
      </trkpt>
      <trkpt lat="43.28791" lon="6.5747">
        <ele>22</ele>
        <time>2017-08-01T06:44:42Z</time>
      </trkpt>
      <trkpt lat="43.28833" lon="6.57464">
        <ele>24</ele>
        <time>2017-08-01T06:44:58Z</time>
      </trkpt>
      <trkpt lat="43.28875" lon="6.57464">
        <ele>27</ele>
        <time>2017-08-01T06:45:16Z</time>
      </trkpt>
      <trkpt lat="43.28909" lon="6.57438">
        <ele>26</ele>
        <time>2017-08-01T06:45:30Z</time>
      </trkpt>
      <trkpt lat="43.28948" lon="6.57424">
        <ele>30</ele>
        <time>2017-08-01T06:45:48Z</time>
      </trkpt>
      <trkpt lat="43.2899" lon="6.57416">
        <ele>31</ele>
        <time>2017-08-01T06:46:07Z</time>
      </trkpt>
      <trkpt lat="43.29029" lon="6.57402">
        <ele>32</ele>
        <time>2017-08-01T06:46:21Z</time>
      </trkpt>
      <trkpt lat="43.29065" lon="6.57388">
        <ele>33</ele>
        <time>2017-08-01T06:46:40Z</time>
      </trkpt>
      <trkpt lat="43.29105" lon="6.57398">
        <ele>34</ele>
        <time>2017-08-01T06:47:00Z</time>
      </trkpt>
      <trkpt lat="43.29142" lon="6.57411">
        <ele>36</ele>
        <time>2017-08-01T06:47:19Z</time>
      </trkpt>
      <trkpt lat="43.29177" lon="6.5744">
        <ele>38</ele>
        <time>2017-08-01T06:47:36Z</time>
      </trkpt>
      <trkpt lat="43.29219" lon="6.57451">
        <ele>38</ele>
        <time>2017-08-01T06:47:50Z</time>
      </trkpt>
      <trkpt lat="43.2926" lon="6.57457">
        <ele>39</ele>
        <time>2017-08-01T06:48:04Z</time>
      </trkpt>
      <trkpt lat="43.29296" lon="6.5748">
        <ele>41</ele>
        <time>2017-08-01T06:48:22Z</time>
      </trkpt>
      <trkpt lat="43.29336" lon="6.57494">
        <ele>41</ele>
        <time>2017-08-01T06:48:40Z</time>
      </trkpt>
      <trkpt lat="43.29378" lon="6.57501">
        <ele>43</ele>
        <time>2017-08-01T06:48:57Z</time>
      </trkpt>
      <trkpt lat="43.29413" lon="6.57524">
        <ele>46</ele>
        <time>2017-08-01T06:49:18Z</time>
      </trkpt>
      <trkpt lat="43.29434" lon="6.57575">
        <ele>47</ele>
        <time>2017-08-01T06:49:36Z</time>
      </trkpt>
      <trkpt lat="43.29428" lon="6.5763">
        <ele>47</ele>
        <time>2017-08-01T06:49:48Z</time>
      </trkpt>
      <trkpt lat="43.29417" lon="6.57687">
        <ele>50</ele>
        <time>2017-08-01T06:50:05Z</time>
      </trkpt>
      <trkpt lat="43.29426" lon="6.5774">
        <ele>54</ele>
        <time>2017-08-01T06:50:27Z</time>
      </trkpt>
      <trkpt lat="43.29461" lon="6.57764">
        <ele>58</ele>
        <time>2017-08-01T06:50:51Z</time>
      </trkpt>
      <trkpt lat="43.29499" lon="6.5775">
        <ele>61</ele>
        <time>2017-08-01T06:51:13Z</time>
      </trkpt>
      <trkpt lat="43.29538" lon="6.57751">
        <ele>63</ele>
        <time>2017-08-01T06:51:33Z</time>
      </trkpt>
      <trkpt lat="43.29555" lon="6.57769">
        <ele>67</ele>
        <time>2017-08-01T06:52:32Z</time>
      </trkpt>
      <trkpt lat="43.29579" lon="6.57755">
        <ele>65</ele>
        <time>2017-08-01T06:53:27Z</time>
      </trkpt>
      <trkpt lat="43.29611" lon="6.5779">
        <ele>69</ele>
        <time>2017-08-01T06:53:52Z</time>
      </trkpt>
      <trkpt lat="43.29628" lon="6.57842">
        <ele>72</ele>
        <time>2017-08-01T06:54:17Z</time>
      </trkpt>
      <trkpt lat="43.29632" lon="6.57899">
        <ele>75</ele>
        <time>2017-08-01T06:54:42Z</time>
      </trkpt>
      <trkpt lat="43.2965" lon="6.57945">
        <ele>77</ele>
        <time>2017-08-01T06:55:33Z</time>
      </trkpt>
      <trkpt lat="43.29684" lon="6.57972">
        <ele>79</ele>
        <time>2017-08-01T06:55:55Z</time>
      </trkpt>
      <trkpt lat="43.29721" lon="6.57952">
        <ele>80</ele>
        <time>2017-08-01T06:56:12Z</time>
      </trkpt>
      <trkpt lat="43.29759" lon="6.5793">
        <ele>79</ele>
        <time>2017-08-01T06:56:23Z</time>
      </trkpt>
      <trkpt lat="43.29797" lon="6.57933">
        <ele>79</ele>
        <time>2017-08-01T06:56:39Z</time>
      </trkpt>
      <trkpt lat="43.29799" lon="6.57989">
        <ele>84</ele>
        <time>2017-08-01T06:57:35Z</time>
      </trkpt>
      <trkpt lat="43.29783" lon="6.58043">
        <ele>88</ele>
        <time>2017-08-01T06:58:19Z</time>
      </trkpt>
      <trkpt lat="43.29759" lon="6.5809">
        <ele>90</ele>
        <time>2017-08-01T06:58:38Z</time>
      </trkpt>
      <trkpt lat="43.29745" lon="6.58146">
        <ele>93</ele>
        <time>2017-08-01T06:58:58Z</time>
      </trkpt>
      <trkpt lat="43.29734" lon="6.58198">
        <ele>96</ele>
        <time>2017-08-01T06:59:36Z</time>
      </trkpt>
      <trkpt lat="43.29712" lon="6.58243">
        <ele>98</ele>
        <time>2017-08-01T07:00:13Z</time>
      </trkpt>
      <trkpt lat="43.29679" lon="6.58273">
        <ele>98</ele>
        <time>2017-08-01T07:01:05Z</time>
      </trkpt>
      <trkpt lat="43.29672" lon="6.58323">
        <ele>101</ele>
        <time>2017-08-01T07:01:53Z</time>
      </trkpt>
      <trkpt lat="43.29672" lon="6.58377">
        <ele>105</ele>
        <time>2017-08-01T07:02:20Z</time>
      </trkpt>
      <trkpt lat="43.29705" lon="6.58406">
        <ele>108</ele>
        <time>2017-08-01T07:02:43Z</time>
      </trkpt>
      <trkpt lat="43.29745" lon="6.58395">
        <ele>110</ele>
        <time>2017-08-01T07:03:04Z</time>
      </trkpt>
      <trkpt lat="43.29784" lon="6.58383">
        <ele>111</ele>
        <time>2017-08-01T07:03:25Z</time>
      </trkpt>
      <trkpt lat="43.29781" lon="6.58436">
        <ele>116</ele>
        <time>2017-08-01T07:03:50Z</time>
      </trkpt>
      <trkpt lat="43.2976" lon="6.58479">
        <ele>118</ele>
        <time>2017-08-01T07:04:13Z</time>
      </trkpt>
      <trkpt lat="43.29793" lon="6.5851">
        <ele>122</ele>
        <time>2017-08-01T07:04:37Z</time>
      </trkpt>
      <trkpt lat="43.29834" lon="6.58518">
        <ele>126</ele>
        <time>2017-08-01T07:05:08Z</time>
      </trkpt>
      <trkpt lat="43.29873" lon="6.58526">
        <ele>131</ele>
        <time>2017-08-01T07:05:42Z</time>
      </trkpt>
      <trkpt lat="43.2989" lon="6.58577">
        <ele>137</ele>
        <time>2017-08-01T07:06:13Z</time>
      </trkpt>
      <trkpt lat="43.29908" lon="6.58616">
        <ele>142</ele>
        <time>2017-08-01T07:06:43Z</time>
      </trkpt>
      <trkpt lat="43.29938" lon="6.58646">
        <ele>146</ele>
        <time>2017-08-01T07:07:16Z</time>
      </trkpt>
      <trkpt lat="43.29974" lon="6.58668">
        <ele>151</ele>
        <time>2017-08-01T07:07:49Z</time>
      </trkpt>
      <trkpt lat="43.30014" lon="6.58682">
        <ele>156</ele>
        <time>2017-08-01T07:08:20Z</time>
      </trkpt>
      <trkpt lat="43.30049" lon="6.5871">
        <ele>160</ele>
        <time>2017-08-01T07:08:53Z</time>
      </trkpt>
      <trkpt lat="43.3009" lon="6.5873">
        <ele>165</ele>
        <time>2017-08-01T07:09:23Z</time>
      </trkpt>
      <trkpt lat="43.30129" lon="6.58741">
        <ele>166</ele>
        <time>2017-08-01T07:09:51Z</time>
      </trkpt>
      <trkpt lat="43.3017" lon="6.58733">
        <ele>166</ele>
        <time>2017-08-01T07:10:04Z</time>
      </trkpt>
      <trkpt lat="43.30211" lon="6.58728">
        <ele>167</ele>
        <time>2017-08-01T07:10:15Z</time>
      </trkpt>
      <trkpt lat="43.30247" lon="6.58753">
        <ele>167</ele>
        <time>2017-08-01T07:10:31Z</time>
      </trkpt>
      <trkpt lat="43.30279" lon="6.58785">
        <ele>168</ele>
        <time>2017-08-01T07:10:49Z</time>
      </trkpt>
      <trkpt lat="43.30316" lon="6.58811">
        <ele>171</ele>
        <time>2017-08-01T07:11:05Z</time>
      </trkpt>
      <trkpt lat="43.30354" lon="6.58834">
        <ele>174</ele>
        <time>2017-08-01T07:11:26Z</time>
      </trkpt>
      <trkpt lat="43.3039" lon="6.58856">
        <ele>176</ele>
        <time>2017-08-01T07:11:42Z</time>
      </trkpt>
      <trkpt lat="43.30431" lon="6.58867">
        <ele>178</ele>
        <time>2017-08-01T07:11:59Z</time>
      </trkpt>
      <trkpt lat="43.30473" lon="6.5888">
        <ele>179</ele>
        <time>2017-08-01T07:12:17Z</time>
      </trkpt>
      <trkpt lat="43.30514" lon="6.58885">
        <ele>179</ele>
        <time>2017-08-01T07:12:33Z</time>
      </trkpt>
      <trkpt lat="43.30557" lon="6.58881">
        <ele>180</ele>
        <time>2017-08-01T07:12:45Z</time>
      </trkpt>
      <trkpt lat="43.30595" lon="6.58886">
        <ele>179</ele>
        <time>2017-08-01T07:12:55Z</time>
      </trkpt>
      <trkpt lat="43.30631" lon="6.58908">
        <ele>176</ele>
        <time>2017-08-01T07:13:06Z</time>
      </trkpt>
      <trkpt lat="43.30669" lon="6.58927">
        <ele>175</ele>
        <time>2017-08-01T07:13:15Z</time>
      </trkpt>
      <trkpt lat="43.30709" lon="6.58929">
        <ele>176</ele>
        <time>2017-08-01T07:13:26Z</time>
      </trkpt>
      <trkpt lat="43.30753" lon="6.58925">
        <ele>178</ele>
        <time>2017-08-01T07:13:35Z</time>
      </trkpt>
      <trkpt lat="43.30799" lon="6.58921">
        <ele>179</ele>
        <time>2017-08-01T07:13:43Z</time>
      </trkpt>
      <trkpt lat="43.3084" lon="6.58918">
        <ele>181</ele>
        <time>2017-08-01T07:13:57Z</time>
      </trkpt>
      <trkpt lat="43.30863" lon="6.58885">
        <ele>182</ele>
        <time>2017-08-01T07:14:18Z</time>
      </trkpt>
      <trkpt lat="43.30873" lon="6.58835">
        <ele>186</ele>
        <time>2017-08-01T07:14:46Z</time>
      </trkpt>
      <trkpt lat="43.30887" lon="6.58784">
        <ele>190</ele>
        <time>2017-08-01T07:15:10Z</time>
      </trkpt>
      <trkpt lat="43.30909" lon="6.58733">
        <ele>193</ele>
        <time>2017-08-01T07:15:34Z</time>
      </trkpt>
      <trkpt lat="43.30935" lon="6.5869">
        <ele>194</ele>
        <time>2017-08-01T07:15:50Z</time>
      </trkpt>
      <trkpt lat="43.30962" lon="6.58647">
        <ele>192</ele>
        <time>2017-08-01T07:16:02Z</time>
      </trkpt>
      <trkpt lat="43.30952" lon="6.58592">
        <ele>192</ele>
        <time>2017-08-01T07:16:12Z</time>
      </trkpt>
      <trkpt lat="43.30942" lon="6.5854">
        <ele>192</ele>
        <time>2017-08-01T07:16:24Z</time>
      </trkpt>
      <trkpt lat="43.30937" lon="6.58484">
        <ele>191</ele>
        <time>2017-08-01T07:16:35Z</time>
      </trkpt>
      <trkpt lat="43.30922" lon="6.58431">
        <ele>192</ele>
        <time>2017-08-01T07:16:44Z</time>
      </trkpt>
      <trkpt lat="43.30918" lon="6.5837">
        <ele>193</ele>
        <time>2017-08-01T07:16:51Z</time>
      </trkpt>
      <trkpt lat="43.30926" lon="6.5832">
        <ele>196</ele>
        <time>2017-08-01T07:17:06Z</time>
      </trkpt>
      <trkpt lat="43.30918" lon="6.58265">
        <ele>197</ele>
        <time>2017-08-01T07:17:30Z</time>
      </trkpt>
      <trkpt lat="43.30917" lon="6.58211">
        <ele>200</ele>
        <time>2017-08-01T07:17:55Z</time>
      </trkpt>
      <trkpt lat="43.30939" lon="6.58164">
        <ele>206</ele>
        <time>2017-08-01T07:18:21Z</time>
      </trkpt>
      <trkpt lat="43.30973" lon="6.58131">
        <ele>210</ele>
        <time>2017-08-01T07:18:47Z</time>
      </trkpt>
      <trkpt lat="43.31007" lon="6.58101">
        <ele>212</ele>
        <time>2017-08-01T07:19:11Z</time>
      </trkpt>
      <trkpt lat="43.31041" lon="6.58071">
        <ele>213</ele>
        <time>2017-08-01T07:19:38Z</time>
      </trkpt>
      <trkpt lat="43.31055" lon="6.58023">
        <ele>214</ele>
        <time>2017-08-01T07:20:03Z</time>
      </trkpt>
      <trkpt lat="43.31051" lon="6.5797">
        <ele>216</ele>
        <time>2017-08-01T07:20:29Z</time>
      </trkpt>
      <trkpt lat="43.3105" lon="6.57911">
        <ele>217</ele>
        <time>2017-08-01T07:20:47Z</time>
      </trkpt>
      <trkpt lat="43.31041" lon="6.57856">
        <ele>218</ele>
        <time>2017-08-01T07:21:02Z</time>
      </trkpt>
      <trkpt lat="43.31018" lon="6.57813">
        <ele>221</ele>
        <time>2017-08-01T07:21:19Z</time>
      </trkpt>
      <trkpt lat="43.30988" lon="6.57773">
        <ele>224</ele>
        <time>2017-08-01T07:21:39Z</time>
      </trkpt>
      <trkpt lat="43.30976" lon="6.5772">
        <ele>226</ele>
        <time>2017-08-01T07:22:00Z</time>
      </trkpt>
      <trkpt lat="43.30986" lon="6.57665">
        <ele>229</ele>
        <time>2017-08-01T07:22:25Z</time>
      </trkpt>
      <trkpt lat="43.30994" lon="6.57612">
        <ele>235</ele>
        <time>2017-08-01T07:22:51Z</time>
      </trkpt>
      <trkpt lat="43.30975" lon="6.57569">
        <ele>236</ele>
        <time>2017-08-01T07:23:18Z</time>
      </trkpt>
      <trkpt lat="43.30947" lon="6.57533">
        <ele>234</ele>
        <time>2017-08-01T07:23:46Z</time>
      </trkpt>
      <trkpt lat="43.30951" lon="6.57477">
        <ele>244</ele>
        <time>2017-08-01T07:24:18Z</time>
      </trkpt>
      <trkpt lat="43.30938" lon="6.57428">
        <ele>249</ele>
        <time>2017-08-01T07:24:49Z</time>
      </trkpt>
      <trkpt lat="43.30906" lon="6.57395">
        <ele>246</ele>
        <time>2017-08-01T07:25:17Z</time>
      </trkpt>
      <trkpt lat="43.30899" lon="6.57344">
        <ele>252</ele>
        <time>2017-08-01T07:25:45Z</time>
      </trkpt>
      <trkpt lat="43.30892" lon="6.57289">
        <ele>254</ele>
        <time>2017-08-01T07:26:15Z</time>
      </trkpt>
      <trkpt lat="43.30906" lon="6.57234">
        <ele>259</ele>
        <time>2017-08-01T07:26:35Z</time>
      </trkpt>
      <trkpt lat="43.30921" lon="6.57181">
        <ele>264</ele>
        <time>2017-08-01T07:26:51Z</time>
      </trkpt>
      <trkpt lat="43.30912" lon="6.57131">
        <ele>263</ele>
        <time>2017-08-01T07:27:07Z</time>
      </trkpt>
      <trkpt lat="43.309" lon="6.5708">
        <ele>262</ele>
        <time>2017-08-01T07:34:24Z</time>
      </trkpt>
      <trkpt lat="43.30925" lon="6.57035">
        <ele>262</ele>
        <time>2017-08-01T07:34:46Z</time>
      </trkpt>
      <trkpt lat="43.30952" lon="6.5699">
        <ele>257</ele>
        <time>2017-08-01T07:34:57Z</time>
      </trkpt>
      <trkpt lat="43.3099" lon="6.56965">
        <ele>256</ele>
        <time>2017-08-01T07:35:08Z</time>
      </trkpt>
      <trkpt lat="43.31023" lon="6.56932">
        <ele>252</ele>
        <time>2017-08-01T07:35:20Z</time>
      </trkpt>
      <trkpt lat="43.3105" lon="6.56885">
        <ele>247</ele>
        <time>2017-08-01T07:35:31Z</time>
      </trkpt>
      <trkpt lat="43.31068" lon="6.56829">
        <ele>241</ele>
        <time>2017-08-01T07:35:41Z</time>
      </trkpt>
      <trkpt lat="43.31087" lon="6.56778">
        <ele>238</ele>
        <time>2017-08-01T07:35:50Z</time>
      </trkpt>
      <trkpt lat="43.31118" lon="6.56747">
        <ele>239</ele>
        <time>2017-08-01T07:35:58Z</time>
      </trkpt>
      <trkpt lat="43.31108" lon="6.56699">
        <ele>239</ele>
        <time>2017-08-01T07:36:12Z</time>
      </trkpt>
      <trkpt lat="43.31074" lon="6.56674">
        <ele>237</ele>
        <time>2017-08-01T07:36:33Z</time>
      </trkpt>
      <trkpt lat="43.31042" lon="6.56638">
        <ele>238</ele>
        <time>2017-08-01T07:36:55Z</time>
      </trkpt>
      <trkpt lat="43.31015" lon="6.56596">
        <ele>242</ele>
        <time>2017-08-01T07:37:13Z</time>
      </trkpt>
      <trkpt lat="43.30979" lon="6.56563">
        <ele>241</ele>
        <time>2017-08-01T07:37:28Z</time>
      </trkpt>
      <trkpt lat="43.30946" lon="6.56534">
        <ele>241</ele>
        <time>2017-08-01T07:37:39Z</time>
      </trkpt>
      <trkpt lat="43.30911" lon="6.56506">
        <ele>238</ele>
        <time>2017-08-01T07:37:48Z</time>
      </trkpt>
      <trkpt lat="43.30886" lon="6.56461">
        <ele>240</ele>
        <time>2017-08-01T07:37:56Z</time>
      </trkpt>
      <trkpt lat="43.30859" lon="6.56432">
        <ele>241</ele>
        <time>2017-08-01T07:38:06Z</time>
      </trkpt>
      <trkpt lat="43.30817" lon="6.56439">
        <ele>235</ele>
        <time>2017-08-01T07:38:17Z</time>
      </trkpt>
      <trkpt lat="43.30773" lon="6.56446">
        <ele>231</ele>
        <time>2017-08-01T07:38:25Z</time>
      </trkpt>
      <trkpt lat="43.30728" lon="6.5645">
        <ele>228</ele>
        <time>2017-08-01T07:38:33Z</time>
      </trkpt>
      <trkpt lat="43.30684" lon="6.56444">
        <ele>230</ele>
        <time>2017-08-01T07:38:41Z</time>
      </trkpt>
      <trkpt lat="43.30642" lon="6.56456">
        <ele>224</ele>
        <time>2017-08-01T07:38:48Z</time>
      </trkpt>
      <trkpt lat="43.306" lon="6.56448">
        <ele>222</ele>
        <time>2017-08-01T07:38:55Z</time>
      </trkpt>
      <trkpt lat="43.30567" lon="6.56417">
        <ele>227</ele>
        <time>2017-08-01T07:39:02Z</time>
      </trkpt>
      <trkpt lat="43.30524" lon="6.56416">
        <ele>223</ele>
        <time>2017-08-01T07:39:11Z</time>
      </trkpt>
      <trkpt lat="43.30483" lon="6.56423">
        <ele>217</ele>
        <time>2017-08-01T07:39:18Z</time>
      </trkpt>
      <trkpt lat="43.3044" lon="6.56416">
        <ele>212</ele>
        <time>2017-08-01T07:39:24Z</time>
      </trkpt>
      <trkpt lat="43.30397" lon="6.56403">
        <ele>210</ele>
        <time>2017-08-01T07:39:31Z</time>
      </trkpt>
      <trkpt lat="43.30358" lon="6.56393">
        <ele>209</ele>
        <time>2017-08-01T07:39:39Z</time>
      </trkpt>
      <trkpt lat="43.30321" lon="6.56421">
        <ele>202</ele>
        <time>2017-08-01T07:39:46Z</time>
      </trkpt>
      <trkpt lat="43.30281" lon="6.56449">
        <ele>199</ele>
        <time>2017-08-01T07:39:52Z</time>
      </trkpt>
      <trkpt lat="43.30246" lon="6.56432">
        <ele>202</ele>
        <time>2017-08-01T07:40:01Z</time>
      </trkpt>
      <trkpt lat="43.30252" lon="6.56379">
        <ele>206</ele>
        <time>2017-08-01T07:40:21Z</time>
      </trkpt>
      <trkpt lat="43.3027" lon="6.56325">
        <ele>207</ele>
        <time>2017-08-01T07:40:31Z</time>
      </trkpt>
      <trkpt lat="43.30283" lon="6.56266">
        <ele>207</ele>
        <time>2017-08-01T07:40:38Z</time>
      </trkpt>
      <trkpt lat="43.30295" lon="6.56212">
        <ele>206</ele>
        <time>2017-08-01T07:40:47Z</time>
      </trkpt>
      <trkpt lat="43.30313" lon="6.56162">
        <ele>207</ele>
        <time>2017-08-01T07:40:57Z</time>
      </trkpt>
      <trkpt lat="43.30331" lon="6.56106">
        <ele>206</ele>
        <time>2017-08-01T07:41:05Z</time>
      </trkpt>
      <trkpt lat="43.30351" lon="6.56052">
        <ele>205</ele>
        <time>2017-08-01T07:41:13Z</time>
      </trkpt>
      <trkpt lat="43.30366" lon="6.55998">
        <ele>199</ele>
        <time>2017-08-01T07:41:22Z</time>
      </trkpt>
      <trkpt lat="43.30393" lon="6.55952">
        <ele>194</ele>
        <time>2017-08-01T07:41:31Z</time>
      </trkpt>
      <trkpt lat="43.30422" lon="6.55916">
        <ele>187</ele>
        <time>2017-08-01T07:41:41Z</time>
      </trkpt>
      <trkpt lat="43.30461" lon="6.55897">
        <ele>185</ele>
        <time>2017-08-01T07:41:50Z</time>
      </trkpt>
      <trkpt lat="43.30499" lon="6.55881">
        <ele>184</ele>
        <time>2017-08-01T07:41:57Z</time>
      </trkpt>
      <trkpt lat="43.30537" lon="6.55866">
        <ele>181</ele>
        <time>2017-08-01T07:42:05Z</time>
      </trkpt>
      <trkpt lat="43.30575" lon="6.55834">
        <ele>173</ele>
        <time>2017-08-01T07:42:14Z</time>
      </trkpt>
      <trkpt lat="43.30587" lon="6.55783">
        <ele>170</ele>
        <time>2017-08-01T07:42:20Z</time>
      </trkpt>
      <trkpt lat="43.30608" lon="6.55735">
        <ele>170</ele>
        <time>2017-08-01T07:42:34Z</time>
      </trkpt>
      <trkpt lat="43.30642" lon="6.55706">
        <ele>176</ele>
        <time>2017-08-01T07:42:50Z</time>
      </trkpt>
      <trkpt lat="43.30673" lon="6.55671">
        <ele>177</ele>
        <time>2017-08-01T07:43:05Z</time>
      </trkpt>
      <trkpt lat="43.30701" lon="6.55628">
        <ele>176</ele>
        <time>2017-08-01T07:43:19Z</time>
      </trkpt>
      <trkpt lat="43.30727" lon="6.5559">
        <ele>176</ele>
        <time>2017-08-01T07:43:35Z</time>
      </trkpt>
      <trkpt lat="43.30757" lon="6.55551">
        <ele>176</ele>
        <time>2017-08-01T07:43:51Z</time>
      </trkpt>
      <trkpt lat="43.30795" lon="6.55529">
        <ele>180</ele>
        <time>2017-08-01T07:44:10Z</time>
      </trkpt>
      <trkpt lat="43.30831" lon="6.55503">
        <ele>183</ele>
        <time>2017-08-01T07:44:26Z</time>
      </trkpt>
      <trkpt lat="43.30862" lon="6.55469">
        <ele>183</ele>
        <time>2017-08-01T07:44:41Z</time>
      </trkpt>
      <trkpt lat="43.30902" lon="6.55448">
        <ele>185</ele>
        <time>2017-08-01T07:44:56Z</time>
      </trkpt>
      <trkpt lat="43.30932" lon="6.55409">
        <ele>183</ele>
        <time>2017-08-01T07:45:09Z</time>
      </trkpt>
      <trkpt lat="43.30951" lon="6.55357">
        <ele>180</ele>
        <time>2017-08-01T07:45:20Z</time>
      </trkpt>
      <trkpt lat="43.30966" lon="6.55307">
        <ele>177</ele>
        <time>2017-08-01T07:45:29Z</time>
      </trkpt>
      <trkpt lat="43.30982" lon="6.55254">
        <ele>177</ele>
        <time>2017-08-01T07:45:41Z</time>
      </trkpt>
      <trkpt lat="43.30997" lon="6.55201">
        <ele>178</ele>
        <time>2017-08-01T07:45:56Z</time>
      </trkpt>
      <trkpt lat="43.31015" lon="6.5515">
        <ele>180</ele>
        <time>2017-08-01T07:46:12Z</time>
      </trkpt>
      <trkpt lat="43.31039" lon="6.55101">
        <ele>182</ele>
        <time>2017-08-01T07:46:29Z</time>
      </trkpt>
      <trkpt lat="43.31068" lon="6.55064">
        <ele>183</ele>
        <time>2017-08-01T07:46:43Z</time>
      </trkpt>
      <trkpt lat="43.31095" lon="6.55011">
        <ele>185</ele>
        <time>2017-08-01T07:47:11Z</time>
      </trkpt>
      <trkpt lat="43.31128" lon="6.54976">
        <ele>186</ele>
        <time>2017-08-01T07:47:28Z</time>
      </trkpt>
      <trkpt lat="43.31161" lon="6.54937">
        <ele>185</ele>
        <time>2017-08-01T07:47:45Z</time>
      </trkpt>
      <trkpt lat="43.31185" lon="6.54888">
        <ele>185</ele>
        <time>2017-08-01T07:47:59Z</time>
      </trkpt>
      <trkpt lat="43.3119" lon="6.5483">
        <ele>185</ele>
        <time>2017-08-01T07:48:10Z</time>
      </trkpt>
      <trkpt lat="43.31197" lon="6.54777">
        <ele>188</ele>
        <time>2017-08-01T07:48:21Z</time>
      </trkpt>
      <trkpt lat="43.31219" lon="6.54728">
        <ele>193</ele>
        <time>2017-08-01T07:48:34Z</time>
      </trkpt>
      <trkpt lat="43.31254" lon="6.54696">
        <ele>194</ele>
        <time>2017-08-01T07:48:50Z</time>
      </trkpt>
      <trkpt lat="43.31292" lon="6.54671">
        <ele>192</ele>
        <time>2017-08-01T07:49:05Z</time>
      </trkpt>
      <trkpt lat="43.31305" lon="6.54614">
        <ele>193</ele>
        <time>2017-08-01T07:49:18Z</time>
      </trkpt>
      <trkpt lat="43.31319" lon="6.54558">
        <ele>194</ele>
        <time>2017-08-01T07:49:32Z</time>
      </trkpt>
      <trkpt lat="43.31327" lon="6.54504">
        <ele>195</ele>
        <time>2017-08-01T07:49:45Z</time>
      </trkpt>
      <trkpt lat="43.31321" lon="6.5445">
        <ele>200</ele>
        <time>2017-08-01T07:50:03Z</time>
      </trkpt>
      <trkpt lat="43.31322" lon="6.54394">
        <ele>205</ele>
        <time>2017-08-01T07:50:22Z</time>
      </trkpt>
      <trkpt lat="43.31348" lon="6.54342">
        <ele>201</ele>
        <time>2017-08-01T07:50:43Z</time>
      </trkpt>
      <trkpt lat="43.31344" lon="6.54291">
        <ele>199</ele>
        <time>2017-08-01T07:50:57Z</time>
      </trkpt>
      <trkpt lat="43.31314" lon="6.5425">
        <ele>200</ele>
        <time>2017-08-01T07:51:10Z</time>
      </trkpt>
      <trkpt lat="43.31279" lon="6.54216">
        <ele>201</ele>
        <time>2017-08-01T07:51:21Z</time>
      </trkpt>
      <trkpt lat="43.31295" lon="6.5416">
        <ele>199</ele>
        <time>2017-08-01T07:51:33Z</time>
      </trkpt>
      <trkpt lat="43.31304" lon="6.54102">
        <ele>200</ele>
        <time>2017-08-01T07:51:42Z</time>
      </trkpt>
      <trkpt lat="43.31294" lon="6.54047">
        <ele>201</ele>
        <time>2017-08-01T07:51:52Z</time>
      </trkpt>
      <trkpt lat="43.31284" lon="6.53998">
        <ele>205</ele>
        <time>2017-08-01T07:52:04Z</time>
      </trkpt>
      <trkpt lat="43.31294" lon="6.5394">
        <ele>202</ele>
        <time>2017-08-01T07:52:15Z</time>
      </trkpt>
      <trkpt lat="43.3129" lon="6.53882">
        <ele>205</ele>
        <time>2017-08-01T07:52:26Z</time>
      </trkpt>
      <trkpt lat="43.31286" lon="6.53827">
        <ele>209</ele>
        <time>2017-08-01T07:52:39Z</time>
      </trkpt>
      <trkpt lat="43.31295" lon="6.53771">
        <ele>208</ele>
        <time>2017-08-01T07:52:51Z</time>
      </trkpt>
      <trkpt lat="43.31294" lon="6.53713">
        <ele>211</ele>
        <time>2017-08-01T07:53:06Z</time>
      </trkpt>
      <trkpt lat="43.31302" lon="6.53659">
        <ele>213</ele>
        <time>2017-08-01T07:53:22Z</time>
      </trkpt>
      <trkpt lat="43.31315" lon="6.53605">
        <ele>214</ele>
        <time>2017-08-01T07:53:41Z</time>
      </trkpt>
      <trkpt lat="43.31336" lon="6.53554">
        <ele>212</ele>
        <time>2017-08-01T07:53:59Z</time>
      </trkpt>
      <trkpt lat="43.31333" lon="6.53501">
        <ele>216</ele>
        <time>2017-08-01T07:54:17Z</time>
      </trkpt>
      <trkpt lat="43.31327" lon="6.53446">
        <ele>225</ele>
        <time>2017-08-01T07:54:36Z</time>
      </trkpt>
      <trkpt lat="43.31354" lon="6.534">
        <ele>223</ele>
        <time>2017-08-01T07:54:58Z</time>
      </trkpt>
      <trkpt lat="43.31388" lon="6.53365">
        <ele>221</ele>
        <time>2017-08-01T07:55:17Z</time>
      </trkpt>
      <trkpt lat="43.31419" lon="6.53329">
        <ele>220</ele>
        <time>2017-08-01T07:55:33Z</time>
      </trkpt>
      <trkpt lat="43.31446" lon="6.53282">
        <ele>222</ele>
        <time>2017-08-01T07:55:52Z</time>
      </trkpt>
      <trkpt lat="43.31463" lon="6.53234">
        <ele>224</ele>
        <time>2017-08-01T07:56:13Z</time>
      </trkpt>
      <trkpt lat="43.31477" lon="6.53182">
        <ele>227</ele>
        <time>2017-08-01T07:56:35Z</time>
      </trkpt>
      <trkpt lat="43.31486" lon="6.5313">
        <ele>229</ele>
        <time>2017-08-01T07:56:54Z</time>
      </trkpt>
      <trkpt lat="43.31481" lon="6.53073">
        <ele>234</ele>
        <time>2017-08-01T07:57:13Z</time>
      </trkpt>
      <trkpt lat="43.31478" lon="6.53019">
        <ele>234</ele>
        <time>2017-08-01T07:57:32Z</time>
      </trkpt>
      <trkpt lat="43.31465" lon="6.52968">
        <ele>237</ele>
        <time>2017-08-01T07:57:52Z</time>
      </trkpt>
      <trkpt lat="43.31438" lon="6.52928">
        <ele>244</ele>
        <time>2017-08-01T07:58:16Z</time>
      </trkpt>
      <trkpt lat="43.31439" lon="6.5287">
        <ele>242</ele>
        <time>2017-08-01T07:58:39Z</time>
      </trkpt>
      <trkpt lat="43.31426" lon="6.52819">
        <ele>248</ele>
        <time>2017-08-01T07:59:03Z</time>
      </trkpt>
      <trkpt lat="43.31415" lon="6.52764">
        <ele>249</ele>
        <time>2017-08-01T07:59:27Z</time>
      </trkpt>
      <trkpt lat="43.3141" lon="6.52708">
        <ele>247</ele>
        <time>2017-08-01T07:59:46Z</time>
      </trkpt>
      <trkpt lat="43.3139" lon="6.52664">
        <ele>248</ele>
        <time>2017-08-01T08:00:02Z</time>
      </trkpt>
      <trkpt lat="43.31351" lon="6.52659">
        <ele>252</ele>
        <time>2017-08-01T08:00:15Z</time>
      </trkpt>
      <trkpt lat="43.31311" lon="6.52642">
        <ele>255</ele>
        <time>2017-08-01T08:00:30Z</time>
      </trkpt>
      <trkpt lat="43.31278" lon="6.52605">
        <ele>252</ele>
        <time>2017-08-01T08:00:41Z</time>
      </trkpt>
      <trkpt lat="43.31237" lon="6.52584">
        <ele>250</ele>
        <time>2017-08-01T08:00:50Z</time>
      </trkpt>
      <trkpt lat="43.31193" lon="6.5258">
        <ele>248</ele>
        <time>2017-08-01T08:00:58Z</time>
      </trkpt>
      <trkpt lat="43.31151" lon="6.52588">
        <ele>244</ele>
        <time>2017-08-01T08:01:04Z</time>
      </trkpt>
      <trkpt lat="43.31109" lon="6.5259">
        <ele>238</ele>
        <time>2017-08-01T08:01:10Z</time>
      </trkpt>
      <trkpt lat="43.31063" lon="6.52588">
        <ele>237</ele>
        <time>2017-08-01T08:01:17Z</time>
      </trkpt>
      <trkpt lat="43.31063" lon="6.52538">
        <ele>234</ele>
        <time>2017-08-01T08:01:32Z</time>
      </trkpt>
      <trkpt lat="43.31089" lon="6.52493">
        <ele>239</ele>
        <time>2017-08-01T08:01:56Z</time>
      </trkpt>
      <trkpt lat="43.31096" lon="6.52437">
        <ele>244</ele>
        <time>2017-08-01T08:02:25Z</time>
      </trkpt>
      <trkpt lat="43.31081" lon="6.52389">
        <ele>251</ele>
        <time>2017-08-01T08:02:57Z</time>
      </trkpt>
      <trkpt lat="43.31091" lon="6.52329">
        <ele>251</ele>
        <time>2017-08-01T08:03:30Z</time>
      </trkpt>
      <trkpt lat="43.31075" lon="6.52282">
        <ele>254</ele>
        <time>2017-08-01T08:03:57Z</time>
      </trkpt>
      <trkpt lat="43.31043" lon="6.52251">
        <ele>257</ele>
        <time>2017-08-01T08:04:24Z</time>
      </trkpt>
      <trkpt lat="43.31006" lon="6.52227">
        <ele>259</ele>
        <time>2017-08-01T08:04:42Z</time>
      </trkpt>
      <trkpt lat="43.30973" lon="6.52251">
        <ele>262</ele>
        <time>2017-08-01T08:05:01Z</time>
      </trkpt>
      <trkpt lat="43.30883" lon="6.52272">
        <ele>264</ele>
        <time>2017-08-01T08:05:34Z</time>
      </trkpt>
      <trkpt lat="43.30843" lon="6.52255">
        <ele>264</ele>
        <time>2017-08-01T08:05:48Z</time>
      </trkpt>
      <trkpt lat="43.30807" lon="6.52227">
        <ele>263</ele>
        <time>2017-08-01T08:06:01Z</time>
      </trkpt>
      <trkpt lat="43.30766" lon="6.52222">
        <ele>264</ele>
        <time>2017-08-01T08:06:15Z</time>
      </trkpt>
      <trkpt lat="43.30723" lon="6.52225">
        <ele>267</ele>
        <time>2017-08-01T08:06:28Z</time>
      </trkpt>
      <trkpt lat="43.3069" lon="6.52187">
        <ele>267</ele>
        <time>2017-08-01T08:06:43Z</time>
      </trkpt>
      <trkpt lat="43.3065" lon="6.52166">
        <ele>270</ele>
        <time>2017-08-01T08:06:57Z</time>
      </trkpt>
      <trkpt lat="43.30615" lon="6.5214">
        <ele>270</ele>
        <time>2017-08-01T08:07:11Z</time>
      </trkpt>
      <trkpt lat="43.3058" lon="6.52114">
        <ele>271</ele>
        <time>2017-08-01T08:07:27Z</time>
      </trkpt>
      <trkpt lat="43.30543" lon="6.52096">
        <ele>272</ele>
        <time>2017-08-01T08:07:41Z</time>
      </trkpt>
      <trkpt lat="43.30502" lon="6.5208">
        <ele>271</ele>
        <time>2017-08-01T08:07:54Z</time>
      </trkpt>
      <trkpt lat="43.30463" lon="6.52089">
        <ele>274</ele>
        <time>2017-08-01T08:08:08Z</time>
      </trkpt>
      <trkpt lat="43.30424" lon="6.52087">
        <ele>275</ele>
        <time>2017-08-01T08:08:23Z</time>
      </trkpt>
      <trkpt lat="43.30386" lon="6.52065">
        <ele>272</ele>
        <time>2017-08-01T08:08:39Z</time>
      </trkpt>
      <trkpt lat="43.30345" lon="6.52055">
        <ele>271</ele>
        <time>2017-08-01T08:08:52Z</time>
      </trkpt>
      <trkpt lat="43.30317" lon="6.52031">
        <ele>271</ele>
        <time>2017-08-01T08:11:58Z</time>
      </trkpt>
      <trkpt lat="43.30296" lon="6.51984">
        <ele>277</ele>
        <time>2017-08-01T08:12:56Z</time>
      </trkpt>
      <trkpt lat="43.30292" lon="6.51929">
        <ele>282</ele>
        <time>2017-08-01T08:13:29Z</time>
      </trkpt>
      <trkpt lat="43.30284" lon="6.51876">
        <ele>287</ele>
        <time>2017-08-01T08:14:05Z</time>
      </trkpt>
      <trkpt lat="43.30251" lon="6.51856">
        <ele>293</ele>
        <time>2017-08-01T08:14:42Z</time>
      </trkpt>
      <trkpt lat="43.30213" lon="6.51839">
        <ele>298</ele>
        <time>2017-08-01T08:15:21Z</time>
      </trkpt>
      <trkpt lat="43.30197" lon="6.51789">
        <ele>305</ele>
        <time>2017-08-01T08:15:56Z</time>
      </trkpt>
      <trkpt lat="43.30132" lon="6.5173">
        <ele>311</ele>
        <time>2017-08-01T08:16:52Z</time>
      </trkpt>
      <trkpt lat="43.301" lon="6.51698">
        <ele>313</ele>
        <time>2017-08-01T08:17:21Z</time>
      </trkpt>
      <trkpt lat="43.30083" lon="6.51646">
        <ele>315</ele>
        <time>2017-08-01T08:19:09Z</time>
      </trkpt>
      <trkpt lat="43.30067" lon="6.51595">
        <ele>315</ele>
        <time>2017-08-01T08:19:19Z</time>
      </trkpt>
      <trkpt lat="43.3007" lon="6.51537">
        <ele>318</ele>
        <time>2017-08-01T08:19:32Z</time>
      </trkpt>
      <trkpt lat="43.30091" lon="6.51491">
        <ele>321</ele>
        <time>2017-08-01T08:19:45Z</time>
      </trkpt>
      <trkpt lat="43.30111" lon="6.51441">
        <ele>321</ele>
        <time>2017-08-01T08:19:59Z</time>
      </trkpt>
      <trkpt lat="43.3012" lon="6.51391">
        <ele>317</ele>
        <time>2017-08-01T08:20:13Z</time>
      </trkpt>
      <trkpt lat="43.30093" lon="6.51346">
        <ele>309</ele>
        <time>2017-08-01T08:20:23Z</time>
      </trkpt>
      <trkpt lat="43.30064" lon="6.51296">
        <ele>301</ele>
        <time>2017-08-01T08:20:29Z</time>
      </trkpt>
      <trkpt lat="43.30028" lon="6.51262">
        <ele>297</ele>
        <time>2017-08-01T08:20:35Z</time>
      </trkpt>
      <trkpt lat="43.29985" lon="6.51243">
        <ele>294</ele>
        <time>2017-08-01T08:20:43Z</time>
      </trkpt>
      <trkpt lat="43.29947" lon="6.51216">
        <ele>290</ele>
        <time>2017-08-01T08:20:50Z</time>
      </trkpt>
      <trkpt lat="43.2991" lon="6.51187">
        <ele>286</ele>
        <time>2017-08-01T08:21:02Z</time>
      </trkpt>
      <trkpt lat="43.29881" lon="6.51146">
        <ele>282</ele>
        <time>2017-08-01T08:21:14Z</time>
      </trkpt>
      <trkpt lat="43.29855" lon="6.511">
        <ele>277</ele>
        <time>2017-08-01T08:21:24Z</time>
      </trkpt>
      <trkpt lat="43.2982" lon="6.51072">
        <ele>273</ele>
        <time>2017-08-01T08:21:35Z</time>
      </trkpt>
      <trkpt lat="43.29781" lon="6.51055">
        <ele>263</ele>
        <time>2017-08-01T08:21:43Z</time>
      </trkpt>
      <trkpt lat="43.29747" lon="6.51019">
        <ele>258</ele>
        <time>2017-08-01T08:21:50Z</time>
      </trkpt>
      <trkpt lat="43.29708" lon="6.5099">
        <ele>254</ele>
        <time>2017-08-01T08:21:57Z</time>
      </trkpt>
      <trkpt lat="43.29665" lon="6.50985">
        <ele>246</ele>
        <time>2017-08-01T08:22:04Z</time>
      </trkpt>
      <trkpt lat="43.29625" lon="6.50968">
        <ele>242</ele>
        <time>2017-08-01T08:22:13Z</time>
      </trkpt>
      <trkpt lat="43.29584" lon="6.50966">
        <ele>234</ele>
        <time>2017-08-01T08:22:23Z</time>
      </trkpt>
      <trkpt lat="43.29547" lon="6.5098">
        <ele>224</ele>
        <time>2017-08-01T08:22:32Z</time>
      </trkpt>
      <trkpt lat="43.29508" lon="6.50981">
        <ele>216</ele>
        <time>2017-08-01T08:22:42Z</time>
      </trkpt>
      <trkpt lat="43.29467" lon="6.50983">
        <ele>208</ele>
        <time>2017-08-01T08:22:55Z</time>
      </trkpt>
      <trkpt lat="43.29423" lon="6.50989">
        <ele>199</ele>
        <time>2017-08-01T08:23:06Z</time>
      </trkpt>
      <trkpt lat="43.29384" lon="6.50974">
        <ele>194</ele>
        <time>2017-08-01T08:23:17Z</time>
      </trkpt>
      <trkpt lat="43.29352" lon="6.50933">
        <ele>188</ele>
        <time>2017-08-01T08:23:59Z</time>
      </trkpt>
      <trkpt lat="43.29332" lon="6.50917">
        <ele>182</ele>
        <time>2017-08-01T08:24:15Z</time>
      </trkpt>
      <trkpt lat="43.29335" lon="6.50869">
        <ele>175</ele>
        <time>2017-08-01T08:24:27Z</time>
      </trkpt>
      <trkpt lat="43.29339" lon="6.50812">
        <ele>170</ele>
        <time>2017-08-01T08:24:36Z</time>
      </trkpt>
      <trkpt lat="43.29352" lon="6.50757">
        <ele>165</ele>
        <time>2017-08-01T08:24:44Z</time>
      </trkpt>
      <trkpt lat="43.29363" lon="6.50701">
        <ele>162</ele>
        <time>2017-08-01T08:24:52Z</time>
      </trkpt>
      <trkpt lat="43.29353" lon="6.50649">
        <ele>154</ele>
        <time>2017-08-01T08:25:03Z</time>
      </trkpt>
      <trkpt lat="43.29338" lon="6.50594">
        <ele>148</ele>
        <time>2017-08-01T08:25:13Z</time>
      </trkpt>
      <trkpt lat="43.29311" lon="6.50554">
        <ele>143</ele>
        <time>2017-08-01T08:25:20Z</time>
      </trkpt>
      <trkpt lat="43.2928" lon="6.5052">
        <ele>137</ele>
        <time>2017-08-01T08:25:29Z</time>
      </trkpt>
      <trkpt lat="43.29242" lon="6.50544">
        <ele>133</ele>
        <time>2017-08-01T08:25:39Z</time>
      </trkpt>
      <trkpt lat="43.292" lon="6.50552">
        <ele>127</ele>
        <time>2017-08-01T08:25:49Z</time>
      </trkpt>
      <trkpt lat="43.29159" lon="6.50562">
        <ele>120</ele>
        <time>2017-08-01T08:25:56Z</time>
      </trkpt>
      <trkpt lat="43.29118" lon="6.50561">
        <ele>111</ele>
        <time>2017-08-01T08:26:04Z</time>
      </trkpt>
      <trkpt lat="43.29076" lon="6.50567">
        <ele>104</ele>
        <time>2017-08-01T08:26:11Z</time>
      </trkpt>
      <trkpt lat="43.29034" lon="6.50571">
        <ele>103</ele>
        <time>2017-08-01T08:26:17Z</time>
      </trkpt>
      <trkpt lat="43.28993" lon="6.50578">
        <ele>101</ele>
        <time>2017-08-01T08:26:26Z</time>
      </trkpt>
      <trkpt lat="43.28961" lon="6.50609">
        <ele>101</ele>
        <time>2017-08-01T08:27:23Z</time>
      </trkpt>
      <trkpt lat="43.28917" lon="6.5062">
        <ele>95</ele>
        <time>2017-08-01T08:27:41Z</time>
      </trkpt>
      <trkpt lat="43.28874" lon="6.50623">
        <ele>87</ele>
        <time>2017-08-01T08:27:54Z</time>
      </trkpt>
      <trkpt lat="43.28833" lon="6.50638">
        <ele>83</ele>
        <time>2017-08-01T08:28:07Z</time>
      </trkpt>
      <trkpt lat="43.28797" lon="6.50676">
        <ele>81</ele>
        <time>2017-08-01T08:28:16Z</time>
      </trkpt>
      <trkpt lat="43.28786" lon="6.50726">
        <ele>81</ele>
        <time>2017-08-01T08:28:24Z</time>
      </trkpt>
      <trkpt lat="43.28799" lon="6.50773">
        <ele>81</ele>
        <time>2017-08-01T08:28:38Z</time>
      </trkpt>
      <trkpt lat="43.28798" lon="6.50827">
        <ele>82</ele>
        <time>2017-08-01T08:29:05Z</time>
      </trkpt>
      <trkpt lat="43.28803" lon="6.50867">
        <ele>81</ele>
        <time>2017-08-01T08:29:34Z</time>
      </trkpt>
      <trkpt lat="43.28782" lon="6.50821">
        <ele>82</ele>
        <time>2017-08-01T08:29:54Z</time>
      </trkpt>
      <trkpt lat="43.28765" lon="6.50772">
        <ele>82</ele>
        <time>2017-08-01T08:30:12Z</time>
      </trkpt>
      <trkpt lat="43.28747" lon="6.50717">
        <ele>82</ele>
        <time>2017-08-01T08:30:24Z</time>
      </trkpt>
      <trkpt lat="43.28724" lon="6.50668">
        <ele>84</ele>
        <time>2017-08-01T08:30:32Z</time>
      </trkpt>
      <trkpt lat="43.28683" lon="6.50642">
        <ele>85</ele>
        <time>2017-08-01T08:30:45Z</time>
      </trkpt>
      <trkpt lat="43.28648" lon="6.50641">
        <ele>85</ele>
        <time>2017-08-01T08:30:53Z</time>
      </trkpt>
      <trkpt lat="43.28616" lon="6.50677">
        <ele>81</ele>
        <time>2017-08-01T08:31:06Z</time>
      </trkpt>
      <trkpt lat="43.28584" lon="6.50718">
        <ele>78</ele>
        <time>2017-08-01T08:31:30Z</time>
      </trkpt>
      <trkpt lat="43.28545" lon="6.50744">
        <ele>78</ele>
        <time>2017-08-01T08:31:38Z</time>
      </trkpt>
      <trkpt lat="43.28507" lon="6.50784">
        <ele>80</ele>
        <time>2017-08-01T08:31:45Z</time>
      </trkpt>
      <trkpt lat="43.28485" lon="6.50828">
        <ele>84</ele>
        <time>2017-08-01T08:32:00Z</time>
      </trkpt>
      <trkpt lat="43.28504" lon="6.50877">
        <ele>83</ele>
        <time>2017-08-01T08:32:21Z</time>
      </trkpt>
      <trkpt lat="43.28529" lon="6.50919">
        <ele>81</ele>
        <time>2017-08-01T08:32:36Z</time>
      </trkpt>
      <trkpt lat="43.28528" lon="6.50968">
        <ele>85</ele>
        <time>2017-08-01T08:32:58Z</time>
      </trkpt>
      <trkpt lat="43.28535" lon="6.51021">
        <ele>88</ele>
        <time>2017-08-01T08:33:27Z</time>
      </trkpt>
      <trkpt lat="43.28552" lon="6.51071">
        <ele>88</ele>
        <time>2017-08-01T08:33:56Z</time>
      </trkpt>
      <trkpt lat="43.28573" lon="6.51117">
        <ele>89</ele>
        <time>2017-08-01T08:34:25Z</time>
      </trkpt>
      <trkpt lat="43.28576" lon="6.51168">
        <ele>89</ele>
        <time>2017-08-01T08:34:50Z</time>
      </trkpt>
      <trkpt lat="43.28554" lon="6.51208">
        <ele>89</ele>
        <time>2017-08-01T08:35:01Z</time>
      </trkpt>
      <trkpt lat="43.28507" lon="6.51209">
        <ele>86</ele>
        <time>2017-08-01T08:35:10Z</time>
      </trkpt>
      <trkpt lat="43.28468" lon="6.51198">
        <ele>91</ele>
        <time>2017-08-01T08:35:17Z</time>
      </trkpt>
      <trkpt lat="43.28449" lon="6.51246">
        <ele>80</ele>
        <time>2017-08-01T08:35:25Z</time>
      </trkpt>
      <trkpt lat="43.28417" lon="6.51286">
        <ele>78</ele>
        <time>2017-08-01T08:35:33Z</time>
      </trkpt>
      <trkpt lat="43.28395" lon="6.51334">
        <ele>76</ele>
        <time>2017-08-01T08:35:41Z</time>
      </trkpt>
      <trkpt lat="43.28376" lon="6.51385">
        <ele>75</ele>
        <time>2017-08-01T08:35:48Z</time>
      </trkpt>
      <trkpt lat="43.28357" lon="6.51438">
        <ele>72</ele>
        <time>2017-08-01T08:35:55Z</time>
      </trkpt>
      <trkpt lat="43.28338" lon="6.51488">
        <ele>71</ele>
        <time>2017-08-01T08:36:01Z</time>
      </trkpt>
      <trkpt lat="43.28328" lon="6.51547">
        <ele>68</ele>
        <time>2017-08-01T08:36:07Z</time>
      </trkpt>
      <trkpt lat="43.28304" lon="6.51595">
        <ele>65</ele>
        <time>2017-08-01T08:36:13Z</time>
      </trkpt>
      <trkpt lat="43.28265" lon="6.51617">
        <ele>64</ele>
        <time>2017-08-01T08:36:21Z</time>
      </trkpt>
      <trkpt lat="43.28237" lon="6.51656">
        <ele>61</ele>
        <time>2017-08-01T08:36:30Z</time>
      </trkpt>
      <trkpt lat="43.28199" lon="6.51679">
        <ele>61</ele>
        <time>2017-08-01T08:36:44Z</time>
      </trkpt>
      <trkpt lat="43.28149" lon="6.51675">
        <ele>62</ele>
        <time>2017-08-01T08:36:51Z</time>
      </trkpt>
      <trkpt lat="43.28106" lon="6.51659">
        <ele>62</ele>
        <time>2017-08-01T08:36:57Z</time>
      </trkpt>
      <trkpt lat="43.28066" lon="6.51653">
        <ele>60</ele>
        <time>2017-08-01T08:37:03Z</time>
      </trkpt>
      <trkpt lat="43.28025" lon="6.5164">
        <ele>61</ele>
        <time>2017-08-01T08:37:11Z</time>
      </trkpt>
      <trkpt lat="43.27983" lon="6.51635">
        <ele>61</ele>
        <time>2017-08-01T08:37:22Z</time>
      </trkpt>
      <trkpt lat="43.27941" lon="6.51629">
        <ele>61</ele>
        <time>2017-08-01T08:37:33Z</time>
      </trkpt>
      <trkpt lat="43.27902" lon="6.51615">
        <ele>63</ele>
        <time>2017-08-01T08:37:40Z</time>
      </trkpt>
      <trkpt lat="43.2786" lon="6.51604">
        <ele>63</ele>
        <time>2017-08-01T08:37:48Z</time>
      </trkpt>
      <trkpt lat="43.2782" lon="6.51591">
        <ele>62</ele>
        <time>2017-08-01T08:37:58Z</time>
      </trkpt>
      <trkpt lat="43.27778" lon="6.51584">
        <ele>61</ele>
        <time>2017-08-01T08:38:09Z</time>
      </trkpt>
      <trkpt lat="43.27736" lon="6.51577">
        <ele>63</ele>
        <time>2017-08-01T08:38:20Z</time>
      </trkpt>
      <trkpt lat="43.27695" lon="6.51575">
        <ele>66</ele>
        <time>2017-08-01T08:38:30Z</time>
      </trkpt>
      <trkpt lat="43.27655" lon="6.51572">
        <ele>70</ele>
        <time>2017-08-01T08:38:43Z</time>
      </trkpt>
      <trkpt lat="43.27617" lon="6.51577">
        <ele>72</ele>
        <time>2017-08-01T08:39:43Z</time>
      </trkpt>
      <trkpt lat="43.27643" lon="6.51609">
        <ele>71</ele>
        <time>2017-08-01T08:40:18Z</time>
      </trkpt>
      <trkpt lat="43.27668" lon="6.51652">
        <ele>71</ele>
        <time>2017-08-01T08:40:49Z</time>
      </trkpt>
      <trkpt lat="43.27659" lon="6.51707">
        <ele>75</ele>
        <time>2017-08-01T08:41:24Z</time>
      </trkpt>
      <trkpt lat="43.27623" lon="6.51733">
        <ele>88</ele>
        <time>2017-08-01T08:41:59Z</time>
      </trkpt>
      <trkpt lat="43.27644" lon="6.51728">
        <ele>80</ele>
        <time>2017-08-01T08:42:22Z</time>
      </trkpt>
      <trkpt lat="43.27664" lon="6.51685">
        <ele>74</ele>
        <time>2017-08-01T08:42:35Z</time>
      </trkpt>
      <trkpt lat="43.27651" lon="6.51632">
        <ele>73</ele>
        <time>2017-08-01T08:42:53Z</time>
      </trkpt>
      <trkpt lat="43.27677" lon="6.51648">
        <ele>68</ele>
        <time>2017-08-01T08:43:11Z</time>
      </trkpt>
      <trkpt lat="43.2768" lon="6.51702">
        <ele>68</ele>
        <time>2017-08-01T08:43:37Z</time>
      </trkpt>
      <trkpt lat="43.27667" lon="6.51757">
        <ele>65</ele>
        <time>2017-08-01T08:44:24Z</time>
      </trkpt>
      <trkpt lat="43.27628" lon="6.51789">
        <ele>66</ele>
        <time>2017-08-01T08:44:31Z</time>
      </trkpt>
      <trkpt lat="43.27599" lon="6.51833">
        <ele>69</ele>
        <time>2017-08-01T08:44:47Z</time>
      </trkpt>
      <trkpt lat="43.27585" lon="6.51885">
        <ele>68</ele>
        <time>2017-08-01T08:45:03Z</time>
      </trkpt>
      <trkpt lat="43.27584" lon="6.51947">
        <ele>72</ele>
        <time>2017-08-01T08:45:35Z</time>
      </trkpt>
      <trkpt lat="43.27612" lon="6.52007">
        <ele>72</ele>
        <time>2017-08-01T08:46:23Z</time>
      </trkpt>
      <trkpt lat="43.27644" lon="6.52045">
        <ele>68</ele>
        <time>2017-08-01T08:46:39Z</time>
      </trkpt>
      <trkpt lat="43.2768" lon="6.52076">
        <ele>66</ele>
        <time>2017-08-01T08:46:47Z</time>
      </trkpt>
      <trkpt lat="43.27701" lon="6.52117">
        <ele>74</ele>
        <time>2017-08-01T08:47:23Z</time>
      </trkpt>
      <trkpt lat="43.27737" lon="6.52103">
        <ele>68</ele>
        <time>2017-08-01T08:48:15Z</time>
      </trkpt>
      <trkpt lat="43.2777" lon="6.52074">
        <ele>56</ele>
        <time>2017-08-01T08:49:33Z</time>
      </trkpt>
      <trkpt lat="43.27798" lon="6.52039">
        <ele>45</ele>
        <time>2017-08-01T08:50:27Z</time>
      </trkpt>
      <trkpt lat="43.2783" lon="6.52039">
        <ele>40</ele>
        <time>2017-08-01T08:50:49Z</time>
      </trkpt>
      <trkpt lat="43.27836" lon="6.52091">
        <ele>41</ele>
        <time>2017-08-01T08:51:38Z</time>
      </trkpt>
      <trkpt lat="43.27841" lon="6.52146">
        <ele>42</ele>
        <time>2017-08-01T08:51:57Z</time>
      </trkpt>
      <trkpt lat="43.27847" lon="6.52199">
        <ele>46</ele>
        <time>2017-08-01T08:52:23Z</time>
      </trkpt>
      <trkpt lat="43.27851" lon="6.52253">
        <ele>47</ele>
        <time>2017-08-01T08:52:46Z</time>
      </trkpt>
      <trkpt lat="43.27852" lon="6.52309">
        <ele>45</ele>
        <time>2017-08-01T08:53:07Z</time>
      </trkpt>
      <trkpt lat="43.27857" lon="6.52374">
        <ele>40</ele>
        <time>2017-08-01T08:53:44Z</time>
      </trkpt>
      <trkpt lat="43.27861" lon="6.52433">
        <ele>40</ele>
        <time>2017-08-01T08:54:19Z</time>
      </trkpt>
      <trkpt lat="43.2785" lon="6.52491">
        <ele>41</ele>
        <time>2017-08-01T08:54:28Z</time>
      </trkpt>
      <trkpt lat="43.27845" lon="6.52546">
        <ele>39</ele>
        <time>2017-08-01T08:54:38Z</time>
      </trkpt>
      <trkpt lat="43.27843" lon="6.52596">
        <ele>34</ele>
        <time>2017-08-01T08:54:49Z</time>
      </trkpt>
      <trkpt lat="43.27806" lon="6.5259">
        <ele>34</ele>
        <time>2017-08-01T08:55:05Z</time>
      </trkpt>
      <trkpt lat="43.27762" lon="6.52589">
        <ele>30</ele>
        <time>2017-08-01T08:55:16Z</time>
      </trkpt>
      <trkpt lat="43.27744" lon="6.52628">
        <ele>27</ele>
        <time>2017-08-01T08:55:27Z</time>
      </trkpt>
      <trkpt lat="43.27706" lon="6.52629">
        <ele>26</ele>
        <time>2017-08-01T08:55:37Z</time>
      </trkpt>
      <trkpt lat="43.2767" lon="6.52653">
        <ele>24</ele>
        <time>2017-08-01T08:55:50Z</time>
      </trkpt>
      <trkpt lat="43.27649" lon="6.52699">
        <ele>23</ele>
        <time>2017-08-01T08:55:58Z</time>
      </trkpt>
      <trkpt lat="43.27623" lon="6.5274">
        <ele>22</ele>
        <time>2017-08-01T08:56:10Z</time>
      </trkpt>
      <trkpt lat="43.27613" lon="6.52794">
        <ele>21</ele>
        <time>2017-08-01T08:56:22Z</time>
      </trkpt>
      <trkpt lat="43.27613" lon="6.52853">
        <ele>21</ele>
        <time>2017-08-01T08:56:33Z</time>
      </trkpt>
      <trkpt lat="43.27615" lon="6.52909">
        <ele>21</ele>
        <time>2017-08-01T08:56:43Z</time>
      </trkpt>
      <trkpt lat="43.27633" lon="6.5296">
        <ele>20</ele>
        <time>2017-08-01T08:56:54Z</time>
      </trkpt>
      <trkpt lat="43.27649" lon="6.53015">
        <ele>20</ele>
        <time>2017-08-01T08:57:06Z</time>
      </trkpt>
      <trkpt lat="43.27653" lon="6.53071">
        <ele>20</ele>
        <time>2017-08-01T08:57:16Z</time>
      </trkpt>
      <trkpt lat="43.27638" lon="6.53122">
        <ele>20</ele>
        <time>2017-08-01T08:57:25Z</time>
      </trkpt>
      <trkpt lat="43.27619" lon="6.53171">
        <ele>20</ele>
        <time>2017-08-01T08:57:35Z</time>
      </trkpt>
      <trkpt lat="43.27594" lon="6.53222">
        <ele>20</ele>
        <time>2017-08-01T08:57:45Z</time>
      </trkpt>
      <trkpt lat="43.27576" lon="6.53272">
        <ele>18</ele>
        <time>2017-08-01T08:57:54Z</time>
      </trkpt>
      <trkpt lat="43.27557" lon="6.53323">
        <ele>19</ele>
        <time>2017-08-01T08:58:04Z</time>
      </trkpt>
      <trkpt lat="43.27543" lon="6.53378">
        <ele>18</ele>
        <time>2017-08-01T08:58:14Z</time>
      </trkpt>
      <trkpt lat="43.27533" lon="6.53429">
        <ele>17</ele>
        <time>2017-08-01T08:58:24Z</time>
      </trkpt>
      <trkpt lat="43.27517" lon="6.53479">
        <ele>17</ele>
        <time>2017-08-01T08:58:33Z</time>
      </trkpt>
      <trkpt lat="43.27492" lon="6.53529">
        <ele>17</ele>
        <time>2017-08-01T08:58:43Z</time>
      </trkpt>
      <trkpt lat="43.27474" lon="6.53582">
        <ele>16</ele>
        <time>2017-08-01T08:58:53Z</time>
      </trkpt>
      <trkpt lat="43.27457" lon="6.53636">
        <ele>17</ele>
        <time>2017-08-01T08:59:03Z</time>
      </trkpt>
      <trkpt lat="43.27436" lon="6.53688">
        <ele>18</ele>
        <time>2017-08-01T08:59:12Z</time>
      </trkpt>
      <trkpt lat="43.27415" lon="6.53738">
        <ele>19</ele>
        <time>2017-08-01T08:59:22Z</time>
      </trkpt>
      <trkpt lat="43.27396" lon="6.53785">
        <ele>19</ele>
        <time>2017-08-01T08:59:32Z</time>
      </trkpt>
      <trkpt lat="43.27385" lon="6.53838">
        <ele>18</ele>
        <time>2017-08-01T08:59:46Z</time>
      </trkpt>
      <trkpt lat="43.27374" lon="6.53894">
        <ele>18</ele>
        <time>2017-08-01T08:59:59Z</time>
      </trkpt>
      <trkpt lat="43.27377" lon="6.5395">
        <ele>18</ele>
        <time>2017-08-01T09:00:11Z</time>
      </trkpt>
      <trkpt lat="43.27379" lon="6.54009">
        <ele>19</ele>
        <time>2017-08-01T09:00:24Z</time>
      </trkpt>
      <trkpt lat="43.27383" lon="6.54065">
        <ele>19</ele>
        <time>2017-08-01T09:00:36Z</time>
      </trkpt>
      <trkpt lat="43.2739" lon="6.5412">
        <ele>19</ele>
        <time>2017-08-01T09:00:51Z</time>
      </trkpt>
      <trkpt lat="43.27387" lon="6.5418">
        <ele>19</ele>
        <time>2017-08-01T09:01:01Z</time>
      </trkpt>
      <trkpt lat="43.2738" lon="6.54234">
        <ele>19</ele>
        <time>2017-08-01T09:01:11Z</time>
      </trkpt>
      <trkpt lat="43.27373" lon="6.5429">
        <ele>18</ele>
        <time>2017-08-01T09:01:22Z</time>
      </trkpt>
      <trkpt lat="43.27368" lon="6.54349">
        <ele>18</ele>
        <time>2017-08-01T09:02:05Z</time>
      </trkpt>
      <trkpt lat="43.27356" lon="6.54404">
        <ele>18</ele>
        <time>2017-08-01T09:02:18Z</time>
      </trkpt>
      <trkpt lat="43.27346" lon="6.54454">
        <ele>17</ele>
        <time>2017-08-01T09:04:08Z</time>
      </trkpt>
      <trkpt lat="43.27335" lon="6.54513">
        <ele>17</ele>
        <time>2017-08-01T09:04:20Z</time>
      </trkpt>
      <trkpt lat="43.27323" lon="6.54571">
        <ele>17</ele>
        <time>2017-08-01T09:04:31Z</time>
      </trkpt>
      <trkpt lat="43.27312" lon="6.54627">
        <ele>16</ele>
        <time>2017-08-01T09:04:42Z</time>
      </trkpt>
      <trkpt lat="43.27296" lon="6.5468">
        <ele>16</ele>
        <time>2017-08-01T09:04:53Z</time>
      </trkpt>
      <trkpt lat="43.27274" lon="6.54728">
        <ele>16</ele>
        <time>2017-08-01T09:05:03Z</time>
      </trkpt>
      <trkpt lat="43.27253" lon="6.54778">
        <ele>15</ele>
        <time>2017-08-01T09:05:14Z</time>
      </trkpt>
      <trkpt lat="43.27232" lon="6.54829">
        <ele>14</ele>
        <time>2017-08-01T09:05:25Z</time>
      </trkpt>
      <trkpt lat="43.27215" lon="6.54879">
        <ele>14</ele>
        <time>2017-08-01T09:05:35Z</time>
      </trkpt>
      <trkpt lat="43.27198" lon="6.54933">
        <ele>14</ele>
        <time>2017-08-01T09:05:46Z</time>
      </trkpt>
      <trkpt lat="43.27183" lon="6.54984">
        <ele>13</ele>
        <time>2017-08-01T09:05:56Z</time>
      </trkpt>
      <trkpt lat="43.27167" lon="6.55043">
        <ele>13</ele>
        <time>2017-08-01T09:06:07Z</time>
      </trkpt>
      <trkpt lat="43.27158" lon="6.55101">
        <ele>12</ele>
        <time>2017-08-01T09:06:17Z</time>
      </trkpt>
      <trkpt lat="43.27147" lon="6.55156">
        <ele>12</ele>
        <time>2017-08-01T09:06:26Z</time>
      </trkpt>
      <trkpt lat="43.27143" lon="6.55212">
        <ele>12</ele>
        <time>2017-08-01T09:06:35Z</time>
      </trkpt>
      <trkpt lat="43.27129" lon="6.55267">
        <ele>11</ele>
        <time>2017-08-01T09:06:45Z</time>
      </trkpt>
      <trkpt lat="43.27108" lon="6.55311">
        <ele>11</ele>
        <time>2017-08-01T09:06:54Z</time>
      </trkpt>
      <trkpt lat="43.27092" lon="6.55365">
        <ele>10</ele>
        <time>2017-08-01T09:07:07Z</time>
      </trkpt>
      <trkpt lat="43.27106" lon="6.55419">
        <ele>10</ele>
        <time>2017-08-01T09:07:23Z</time>
      </trkpt>
      <trkpt lat="43.2712" lon="6.55471">
        <ele>9</ele>
        <time>2017-08-01T09:07:51Z</time>
      </trkpt>
      <trkpt lat="43.27142" lon="6.55517">
        <ele>9</ele>
        <time>2017-08-01T09:08:03Z</time>
      </trkpt>
      <trkpt lat="43.2716" lon="6.55569">
        <ele>9</ele>
        <time>2017-08-01T09:08:16Z</time>
      </trkpt>
      <trkpt lat="43.27177" lon="6.55621">
        <ele>9</ele>
        <time>2017-08-01T09:08:29Z</time>
      </trkpt>
      <trkpt lat="43.27184" lon="6.55677">
        <ele>9</ele>
        <time>2017-08-01T09:08:40Z</time>
      </trkpt>
      <trkpt lat="43.27193" lon="6.55732">
        <ele>9</ele>
        <time>2017-08-01T09:08:50Z</time>
      </trkpt>
      <trkpt lat="43.27201" lon="6.55787">
        <ele>9</ele>
        <time>2017-08-01T09:08:59Z</time>
      </trkpt>
      <trkpt lat="43.27209" lon="6.55842">
        <ele>9</ele>
        <time>2017-08-01T09:09:08Z</time>
      </trkpt>
      <trkpt lat="43.27214" lon="6.55901">
        <ele>9</ele>
        <time>2017-08-01T09:09:17Z</time>
      </trkpt>
      <trkpt lat="43.2722" lon="6.55954">
        <ele>8</ele>
        <time>2017-08-01T09:09:27Z</time>
      </trkpt>
      <trkpt lat="43.27226" lon="6.56011">
        <ele>8</ele>
        <time>2017-08-01T09:09:36Z</time>
      </trkpt>
      <trkpt lat="43.27239" lon="6.56067">
        <ele>8</ele>
        <time>2017-08-01T09:09:46Z</time>
      </trkpt>
      <trkpt lat="43.27264" lon="6.56115">
        <ele>8</ele>
        <time>2017-08-01T09:09:56Z</time>
      </trkpt>
      <trkpt lat="43.27292" lon="6.56156">
        <ele>8</ele>
        <time>2017-08-01T09:10:06Z</time>
      </trkpt>
      <trkpt lat="43.2732" lon="6.56199">
        <ele>8</ele>
        <time>2017-08-01T09:10:17Z</time>
      </trkpt>
      <trkpt lat="43.27345" lon="6.56245">
        <ele>7</ele>
        <time>2017-08-01T09:10:27Z</time>
      </trkpt>
      <trkpt lat="43.2735" lon="6.56302">
        <ele>7</ele>
        <time>2017-08-01T09:10:36Z</time>
      </trkpt>
      <trkpt lat="43.2736" lon="6.56359">
        <ele>7</ele>
        <time>2017-08-01T09:10:47Z</time>
      </trkpt>
      <trkpt lat="43.27386" lon="6.56404">
        <ele>7</ele>
        <time>2017-08-01T09:10:57Z</time>
      </trkpt>
      <trkpt lat="43.27412" lon="6.56447">
        <ele>7</ele>
        <time>2017-08-01T09:11:07Z</time>
      </trkpt>
      <trkpt lat="43.27438" lon="6.56493">
        <ele>7</ele>
        <time>2017-08-01T09:11:18Z</time>
      </trkpt>
      <trkpt lat="43.27464" lon="6.56537">
        <ele>7</ele>
        <time>2017-08-01T09:11:29Z</time>
      </trkpt>
      <trkpt lat="43.2749" lon="6.56579">
        <ele>7</ele>
        <time>2017-08-01T09:11:40Z</time>
      </trkpt>
      <trkpt lat="43.27509" lon="6.5663">
        <ele>7</ele>
        <time>2017-08-01T09:11:51Z</time>
      </trkpt>
      <trkpt lat="43.27524" lon="6.56683">
        <ele>6</ele>
        <time>2017-08-01T09:12:01Z</time>
      </trkpt>
      <trkpt lat="43.27535" lon="6.56738">
        <ele>6</ele>
        <time>2017-08-01T09:12:11Z</time>
      </trkpt>
      <trkpt lat="43.2755" lon="6.56792">
        <ele>6</ele>
        <time>2017-08-01T09:12:21Z</time>
      </trkpt>
      <trkpt lat="43.27564" lon="6.56842">
        <ele>6</ele>
        <time>2017-08-01T09:12:33Z</time>
      </trkpt>
      <trkpt lat="43.27578" lon="6.56894">
        <ele>6</ele>
        <time>2017-08-01T09:12:47Z</time>
      </trkpt>
      <trkpt lat="43.27593" lon="6.56947">
        <ele>6</ele>
        <time>2017-08-01T09:12:59Z</time>
      </trkpt>
      <trkpt lat="43.27617" lon="6.56989">
        <ele>6</ele>
        <time>2017-08-01T09:13:09Z</time>
      </trkpt>
      <trkpt lat="43.27648" lon="6.5703">
        <ele>6</ele>
        <time>2017-08-01T09:13:20Z</time>
      </trkpt>
      <trkpt lat="43.27675" lon="6.57071">
        <ele>6</ele>
        <time>2017-08-01T09:13:31Z</time>
      </trkpt>
      <trkpt lat="43.27706" lon="6.57112">
        <ele>6</ele>
        <time>2017-08-01T09:13:43Z</time>
      </trkpt>
      <trkpt lat="43.27731" lon="6.57155">
        <ele>6</ele>
        <time>2017-08-01T09:13:55Z</time>
      </trkpt>
      <trkpt lat="43.27757" lon="6.57203">
        <ele>6</ele>
        <time>2017-08-01T09:14:07Z</time>
      </trkpt>
      <trkpt lat="43.27778" lon="6.57253">
        <ele>6</ele>
        <time>2017-08-01T09:14:20Z</time>
      </trkpt>
      <trkpt lat="43.27797" lon="6.57302">
        <ele>6</ele>
        <time>2017-08-01T09:14:31Z</time>
      </trkpt>
      <trkpt lat="43.27818" lon="6.57353">
        <ele>6</ele>
        <time>2017-08-01T09:14:44Z</time>
      </trkpt>
      <trkpt lat="43.27836" lon="6.57404">
        <ele>7</ele>
        <time>2017-08-01T09:14:57Z</time>
      </trkpt>
      <trkpt lat="43.27849" lon="6.57457">
        <ele>7</ele>
        <time>2017-08-01T09:15:11Z</time>
      </trkpt>
      <trkpt lat="43.27858" lon="6.57512">
        <ele>7</ele>
        <time>2017-08-01T09:15:25Z</time>
      </trkpt>
      <trkpt lat="43.27867" lon="6.57566">
        <ele>8</ele>
        <time>2017-08-01T09:15:42Z</time>
      </trkpt>
      <trkpt lat="43.27841" lon="6.57615">
        <ele>8</ele>
        <time>2017-08-01T09:16:10Z</time>
      </trkpt>
      <trkpt lat="43.27872" lon="6.57651">
        <ele>8</ele>
        <time>2017-08-01T09:16:32Z</time>
      </trkpt>
      <trkpt lat="43.27904" lon="6.5769">
        <ele>9</ele>
        <time>2017-08-01T09:16:46Z</time>
      </trkpt>
      <trkpt lat="43.27927" lon="6.57739">
        <ele>9</ele>
        <time>2017-08-01T09:16:57Z</time>
      </trkpt>
      <trkpt lat="43.27948" lon="6.57788">
        <ele>9</ele>
        <time>2017-08-01T09:17:09Z</time>
      </trkpt>
      <trkpt lat="43.27971" lon="6.57839">
        <ele>8</ele>
        <time>2017-08-01T09:17:20Z</time>
      </trkpt>
      <trkpt lat="43.27996" lon="6.57881">
        <ele>8</ele>
        <time>2017-08-01T09:17:30Z</time>
      </trkpt>
      <trkpt lat="43.2802" lon="6.57926">
        <ele>7</ele>
        <time>2017-08-01T09:17:41Z</time>
      </trkpt>
      <trkpt lat="43.28041" lon="6.57979">
        <ele>7</ele>
        <time>2017-08-01T09:17:53Z</time>
      </trkpt>
      <trkpt lat="43.28061" lon="6.58032">
        <ele>6</ele>
        <time>2017-08-01T09:18:02Z</time>
      </trkpt>
      <trkpt lat="43.28074" lon="6.58087">
        <ele>6</ele>
        <time>2017-08-01T09:18:12Z</time>
      </trkpt>
      <trkpt lat="43.2809" lon="6.58138">
        <ele>5</ele>
        <time>2017-08-01T09:18:22Z</time>
      </trkpt>
      <trkpt lat="43.28105" lon="6.58196">
        <ele>5</ele>
        <time>2017-08-01T09:18:32Z</time>
      </trkpt>
      <trkpt lat="43.28117" lon="6.58252">
        <ele>5</ele>
        <time>2017-08-01T09:18:42Z</time>
      </trkpt>
      <trkpt lat="43.28132" lon="6.5831">
        <ele>6</ele>
        <time>2017-08-01T09:18:52Z</time>
      </trkpt>
      <trkpt lat="43.28147" lon="6.58367">
        <ele>5</ele>
        <time>2017-08-01T09:19:00Z</time>
      </trkpt>
      <trkpt lat="43.28162" lon="6.58417">
        <ele>6</ele>
        <time>2017-08-01T09:19:09Z</time>
      </trkpt>
      <trkpt lat="43.28176" lon="6.58471">
        <ele>6</ele>
        <time>2017-08-01T09:19:20Z</time>
      </trkpt>
      <trkpt lat="43.28193" lon="6.58527">
        <ele>6</ele>
        <time>2017-08-01T09:19:29Z</time>
      </trkpt>
      <trkpt lat="43.28206" lon="6.58582">
        <ele>6</ele>
        <time>2017-08-01T09:19:37Z</time>
      </trkpt>
      <trkpt lat="43.28196" lon="6.58624">
        <ele>5</ele>
        <time>2017-08-01T09:19:51Z</time>
      </trkpt>
      <trkpt lat="43.28182" lon="6.58678">
        <ele>3</ele>
        <time>2017-08-01T09:20:06Z</time>
      </trkpt>
      <trkpt lat="43.28172" lon="6.5873">
        <ele>2</ele>
        <time>2017-08-01T09:20:25Z</time>
      </trkpt>
      <trkpt lat="43.28176" lon="6.58737">
        <ele>2</ele>
        <time>2017-08-01T09:21:52Z</time>
      </trkpt>
    </trkseg>
  </trk>
</gpx>